Time;durP1;ratioP1;P1;durP2;ratioP2;P2;SDS_P1;SDS_P2;PMS_P1;PMS_P2;Temp;Humidity;BMP_temperature;BMP_pressure;BME280_temperature;BME280_humidity;BME280_pressure;Samples;Min_cycle;Max_cycle;Signal;HPM_P1;HPM_P2
2023/02/21 02:14:01;;;;;;;10.75;5.50;;;;;;;;;;5051475;28;20533;-76
2023/02/21 02:16:41;;;;;;;10.75;5.18;;;;;;;;;;5048937;28;20503;-76
2023/02/21 02:19:37;;;;;;;9.90;5.80;;;;;;;;;;5052214;28;20049;-76
2023/02/21 02:22:35;;;;;;;10.25;5.03;;;;;;;;;;5047442;28;20139;-76
2023/02/21 02:25:29;;;;;;;11.43;5.20;;;;;;;;;;5051261;28;20045;-76
2023/02/21 02:28:20;;;;;;;10.38;5.72;;;;;;;;;;5047974;28;20049;-76
2023/02/21 02:31:15;;;;;;;10.07;4.85;;;;;;;;;;5051358;28;20041;-76
2023/02/21 02:34:21;;;;;;;11.07;5.47;;;;;;;;;;5051534;28;20060;-75
2023/02/21 02:36:53;;;;;;;10.70;5.35;;;;;;;;;;5052459;28;20041;-77
2023/02/21 02:39:28;;;;;;;12.88;6.80;;;;;;;;;;5055197;28;20051;-77
2023/02/21 02:42:04;;;;;;;14.30;7.03;;;;;;;;;;5054756;28;20053;-77
2023/02/21 02:44:37;;;;;;;13.75;6.47;;;;;;;;;;5054860;28;20506;-77
2023/02/21 02:47:06;;;;;;;15.77;7.22;;;;;;;;;;5055104;28;20098;-77
2023/02/21 02:49:36;;;;;;;12.68;6.97;;;;;;;;;;5057267;28;20045;-76
2023/02/21 02:52:09;;;;;;;13.02;6.43;;;;;;;;;;5060558;28;20461;-76
2023/02/21 02:54:36;;;;;;;12.77;6.47;;;;;;;;;;5058391;28;20076;-77
2023/02/21 02:57:09;;;;;;;11.82;6.20;;;;;;;;;;5054960;28;20045;-76
2023/02/21 02:59:38;;;;;;;12.45;6.53;;;;;;;;;;5054438;28;20488;-76
2023/02/21 03:02:23;;;;;;;12.60;6.28;;;;;;;;;;5054295;28;20048;-77
2023/02/21 03:05:06;;;;;;;10.07;5.78;;;;;;;;;;5054619;28;20410;-77
2023/02/21 03:07:45;;;;;;;10.27;5.72;;;;;;;;;;5054686;28;20078;-76
2023/02/21 03:10:18;;;;;;;12.93;6.20;;;;;;;;;;5054473;28;20055;-77
2023/02/21 03:12:51;;;;;;;10.07;5.65;;;;;;;;;;5054094;28;20080;-77
2023/02/21 03:15:21;;;;;;;13.13;6.50;;;;;;;;;;5054469;28;20128;-77
2023/02/21 03:17:54;;;;;;;15.75;6.85;;;;;;;;;;5054154;28;20159;-76
2023/02/21 03:20:21;;;;;;;12.80;6.25;;;;;;;;;;5054320;28;20143;-77
2023/02/21 03:22:52;;;;;;;11.90;6.25;;;;;;;;;;5053894;28;20071;-76
2023/02/21 03:25:21;;;;;;;11.98;6.32;;;;;;;;;;5054546;28;20127;-75
2023/02/21 03:27:51;;;;;;;14.57;6.95;;;;;;;;;;5054521;28;20049;-78
2023/02/21 03:30:19;;;;;;;12.13;6.35;;;;;;;;;;5054278;28;20072;-75
2023/02/21 03:32:48;;;;;;;13.35;6.50;;;;;;;;;;5054101;28;20127;-76
2023/02/21 03:35:15;;;;;;;10.60;6.05;;;;;;;;;;5053810;28;20591;-79
2023/02/21 03:37:43;;;;;;;11.23;5.35;;;;;;;;;;5053889;28;20059;-76
2023/02/21 03:40:14;;;;;;;11.48;5.13;;;;;;;;;;5054167;28;20051;-77
2023/02/21 03:42:41;;;;;;;9.07;5.18;;;;;;;;;;5053771;28;20059;-76
2023/02/21 03:45:08;;;;;;;9.48;4.85;;;;;;;;;;5053923;28;20041;-77
2023/02/21 03:47:35;;;;;;;11.93;5.45;;;;;;;;;;5053323;28;20057;-76
2023/02/21 03:50:03;;;;;;;12.95;5.40;;;;;;;;;;5053753;28;20128;-77
2023/02/21 03:52:30;;;;;;;8.75;4.78;;;;;;;;;;5053320;28;20065;-76
2023/02/21 03:54:57;;;;;;;8.13;4.47;;;;;;;;;;5054968;28;20045;-78
2023/02/21 03:57:24;;;;;;;9.80;4.85;;;;;;;;;;5056992;28;20041;-78
2023/02/21 03:59:51;;;;;;;11.75;5.22;;;;;;;;;;5058205;28;20056;-79
2023/02/21 04:02:18;;;;;;;10.73;5.10;;;;;;;;;;5058500;28;20072;-77
2023/02/21 04:04:47;;;;;;;8.82;5.22;;;;;;;;;;5059205;28;20063;-78
2023/02/21 04:07:14;;;;;;;11.73;4.90;;;;;;;;;;5077324;28;20049;-78
2023/02/21 04:09:41;;;;;;;7.97;4.72;;;;;;;;;;5077761;28;20041;-76
2023/02/21 04:12:08;;;;;;;10.98;4.93;;;;;;;;;;5059830;28;20055;-76
2023/02/21 04:14:37;;;;;;;10.80;5.40;;;;;;;;;;5057074;28;20136;-78
2023/02/21 04:17:03;;;;;;;12.02;5.18;;;;;;;;;;5055792;28;20045;-77
2023/02/21 04:19:30;;;;;;;8.88;4.93;;;;;;;;;;5056108;28;20067;-77
2023/02/21 04:21:57;;;;;;;9.68;4.88;;;;;;;;;;5054234;28;20140;-77
2023/02/21 04:24:23;;;;;;;10.75;4.20;;;;;;;;;;5056175;28;20057;-78
2023/02/21 04:26:50;;;;;;;12.27;5.18;;;;;;;;;;5055419;28;20045;-76
2023/02/21 04:29:16;;;;;;;10.48;5.07;;;;;;;;;;5053692;28;20132;-77
2023/02/21 04:31:44;;;;;;;12.52;5.03;;;;;;;;;;5052960;28;20228;-76
2023/02/21 04:34:11;;;;;;;11.82;6.20;;;;;;;;;;5054082;28;20128;-79
2023/02/21 04:36:38;;;;;;;13.15;5.45;;;;;;;;;;5054526;28;20513;-78
2023/02/21 04:39:06;;;;;;;9.40;4.90;;;;;;;;;;5054514;28;20064;-78
2023/02/21 04:41:33;;;;;;;10.55;5.18;;;;;;;;;;5053990;28;20059;-79
2023/02/21 04:43:59;;;;;;;8.82;4.97;;;;;;;;;;5053860;28;20041;-79
2023/02/21 04:46:29;;;;;;;8.65;4.60;;;;;;;;;;5053816;28;20135;-79
2023/02/21 04:48:57;;;;;;;9.40;5.13;;;;;;;;;;5053919;28;20392;-78
2023/02/21 04:51:25;;;;;;;12.25;4.78;;;;;;;;;;5055295;28;20049;-79
2023/02/21 04:53:54;;;;;;;13.00;5.03;;;;;;;;;;5056436;28;20412;-78
2023/02/21 04:56:23;;;;;;;11.23;5.88;;;;;;;;;;5059216;28;20109;-78
2023/02/21 04:58:50;;;;;;;13.77;6.20;;;;;;;;;;5060671;28;20045;-77
2023/02/21 05:01:19;;;;;;;10.45;5.35;;;;;;;;;;5062085;28;20127;-78
2023/02/21 05:03:45;;;;;;;8.65;4.90;;;;;;;;;;5061482;28;20045;-78
2023/02/21 05:06:19;;;;;;;11.32;4.57;;;;;;;;;;5075003;28;20044;-78
2023/02/21 05:08:45;;;;;;;10.65;5.00;;;;;;;;;;5091257;28;20055;-78
2023/02/21 05:11:12;;;;;;;13.00;5.25;;;;;;;;;;5078257;28;20504;-79
2023/02/21 05:13:39;;;;;;;8.00;4.45;;;;;;;;;;5073610;28;20443;-78
2023/02/21 05:16:06;;;;;;;8.45;4.38;;;;;;;;;;5058015;28;20125;-79
2023/02/21 05:18:37;;;;;;;8.63;4.40;;;;;;;;;;5057434;28;20055;-78
2023/02/21 05:21:04;;;;;;;10.00;3.88;;;;;;;;;;5065177;28;20044;-78
2023/02/21 05:23:35;;;;;;;10.23;4.18;;;;;;;;;;5057108;28;20080;-77
2023/02/21 05:26:02;;;;;;;11.48;4.28;;;;;;;;;;5056651;28;20045;-77
2023/02/21 05:28:29;;;;;;;9.60;5.13;;;;;;;;;;5055722;28;20045;-78
2023/02/21 05:30:56;;;;;;;7.07;3.95;;;;;;;;;;5054388;28;20148;-78
2023/02/21 05:33:23;;;;;;;8.82;4.32;;;;;;;;;;5054296;28;20049;-77
2023/02/21 05:35:50;;;;;;;8.57;3.90;;;;;;;;;;5056360;28;20099;-78
2023/02/21 05:38:18;;;;;;;8.05;4.30;;;;;;;;;;5061919;28;20072;-77
2023/02/21 05:40:47;;;;;;;11.25;4.20;;;;;;;;;;5062544;28;20614;-77
2023/02/21 05:43:14;;;;;;;11.35;4.50;;;;;;;;;;5061552;28;20167;-78
2023/02/21 05:45:40;;;;;;;10.57;4.60;;;;;;;;;;5059720;28;20076;-77
2023/02/21 05:48:07;;;;;;;9.32;4.75;;;;;;;;;;5062602;28;20049;-77
2023/02/21 05:50:34;;;;;;;10.27;4.78;;;;;;;;;;5060979;28;20106;-78
2023/02/21 05:53:01;;;;;;;10.00;4.38;;;;;;;;;;5053011;28;20132;-77
2023/02/21 05:55:28;;;;;;;8.10;4.05;;;;;;;;;;5053000;28;20147;-77
2023/02/21 05:57:56;;;;;;;13.45;4.65;;;;;;;;;;5055312;28;20073;-78
2023/02/21 06:00:26;;;;;;;8.13;4.03;;;;;;;;;;5056458;28;20478;-79
2023/02/21 06:02:54;;;;;;;7.60;3.90;;;;;;;;;;5056780;28;20084;-78
2023/02/21 06:05:22;;;;;;;8.73;4.47;;;;;;;;;;5055929;28;20053;-77
2023/02/21 06:07:49;;;;;;;10.05;4.75;;;;;;;;;;5054342;28;20107;-77
2023/02/21 06:10:16;;;;;;;9.57;4.40;;;;;;;;;;5056020;28;20041;-80
2023/02/21 06:12:42;;;;;;;12.13;4.35;;;;;;;;;;5059137;28;20171;-77
2023/02/21 06:15:11;;;;;;;9.40;3.95;;;;;;;;;;5059695;28;20113;-78
2023/02/21 06:17:38;;;;;;;8.43;4.10;;;;;;;;;;5058263;28;20072;-78
2023/02/21 06:20:07;;;;;;;10.27;4.57;;;;;;;;;;5059216;28;20051;-78
2023/02/21 06:22:33;;;;;;;10.02;4.30;;;;;;;;;;5064243;22;20048;-74
2023/02/21 06:25:00;;;;;;;8.18;4.45;;;;;;;;;;5052098;28;20498;-74
2023/02/21 06:27:27;;;;;;;7.80;3.75;;;;;;;;;;5052528;28;20447;-74
2023/02/21 06:29:53;;;;;;;9.63;4.15;;;;;;;;;;5052562;28;20047;-75
2023/02/21 06:32:21;;;;;;;8.73;4.28;;;;;;;;;;5055918;28;20053;-74
2023/02/21 06:34:48;;;;;;;11.02;4.50;;;;;;;;;;5061905;28;20041;-74
2023/02/21 06:37:14;;;;;;;8.57;3.83;;;;;;;;;;5061409;28;20055;-74
2023/02/21 06:39:41;;;;;;;7.88;4.03;;;;;;;;;;5062504;28;20119;-74
2023/02/21 06:42:11;;;;;;;7.70;4.28;;;;;;;;;;5061684;28;20098;-75
2023/02/21 06:44:37;;;;;;;8.67;4.07;;;;;;;;;;5063869;28;20512;-74
2023/02/21 06:47:04;;;;;;;8.52;4.25;;;;;;;;;;5063322;28;20931;-75
2023/02/21 06:49:32;;;;;;;10.57;4.18;;;;;;;;;;5073679;28;20052;-74
2023/02/21 06:51:59;;;;;;;10.13;3.90;;;;;;;;;;5074697;28;20131;-74
2023/02/21 06:54:25;;;;;;;7.28;3.55;;;;;;;;;;5075005;28;20084;-74
2023/02/21 06:56:52;;;;;;;8.02;4.20;;;;;;;;;;5074941;28;20127;-74
2023/02/21 06:59:19;;;;;;;7.53;3.22;;;;;;;;;;5073801;28;20045;-73
2023/02/21 07:01:45;;;;;;;10.68;3.97;;;;;;;;;;5074077;28;20406;-74
2023/02/21 07:04:12;;;;;;;8.40;3.17;;;;;;;;;;5074782;28;20136;-74
2023/02/21 07:06:40;;;;;;;8.85;3.30;;;;;;;;;;5060894;28;20438;-75
2023/02/21 07:09:07;;;;;;;6.20;3.10;;;;;;;;;;5072365;28;20127;-74
2023/02/21 07:11:35;;;;;;;7.05;3.00;;;;;;;;;;5074500;28;20123;-74
2023/02/21 07:14:03;;;;;;;9.35;3.60;;;;;;;;;;5074463;28;20098;-75
2023/02/21 07:16:30;;;;;;;7.93;3.53;;;;;;;;;;5074705;28;20048;-75
2023/02/21 07:18:56;;;;;;;7.32;3.20;;;;;;;;;;5065330;28;20232;-75
2023/02/21 07:21:23;;;;;;;8.63;3.40;;;;;;;;;;5074399;28;20518;-75
2023/02/21 07:23:51;;;;;;;10.43;3.35;;;;;;;;;;5073658;28;20041;-75
2023/02/21 07:26:18;;;;;;;7.80;3.40;;;;;;;;;;5074349;28;20127;-75
2023/02/21 07:28:48;;;;;;;8.73;3.95;;;;;;;;;;5069934;28;20082;-75
2023/02/21 07:31:14;;;;;;;7.70;3.20;;;;;;;;;;5072157;28;20518;-75
2023/02/21 07:33:41;;;;;;;8.55;4.30;;;;;;;;;;5074161;28;20064;-75
2023/02/21 07:36:08;;;;;;;8.30;4.05;;;;;;;;;;5073998;28;20048;-74
2023/02/21 07:38:35;;;;;;;11.27;3.55;;;;;;;;;;5066287;28;20055;-74
2023/02/21 07:41:03;;;;;;;10.07;4.07;;;;;;;;;;5054061;28;20123;-74
2023/02/21 07:43:31;;;;;;;6.90;3.47;;;;;;;;;;5053330;28;20052;-75
2023/02/21 07:45:59;;;;;;;8.00;3.55;;;;;;;;;;5053927;28;20045;-75
2023/02/21 07:48:25;;;;;;;9.85;3.97;;;;;;;;;;5055644;28;20049;-75
2023/02/21 07:50:52;;;;;;;6.68;3.28;;;;;;;;;;5055156;28;20072;-75
2023/02/21 07:53:19;;;;;;;8.10;3.53;;;;;;;;;;5053319;28;20500;-75
2023/02/21 07:55:45;;;;;;;7.63;4.18;;;;;;;;;;5061860;28;20098;-75
2023/02/21 07:58:13;;;;;;;8.25;3.60;;;;;;;;;;5072925;28;20087;-75
2023/02/21 08:00:40;;;;;;;6.95;3.28;;;;;;;;;;5053634;28;20077;-75
2023/02/21 08:03:06;;;;;;;8.27;3.30;;;;;;;;;;5069680;28;20149;-75
2023/02/21 08:05:33;;;;;;;8.10;3.55;;;;;;;;;;5068877;28;20041;-75
2023/02/21 08:08:00;;;;;;;9.65;4.30;;;;;;;;;;5053856;28;20051;-74
2023/02/21 08:10:28;;;;;;;7.32;3.55;;;;;;;;;;5063146;28;20046;-74
2023/02/21 08:12:56;;;;;;;7.07;3.28;;;;;;;;;;5062729;28;20059;-74
2023/02/21 08:15:24;;;;;;;8.70;3.38;;;;;;;;;;5035890;28;20045;-75
2023/02/21 08:17:51;;;;;;;6.82;3.03;;;;;;;;;;5033728;28;20041;-75
2023/02/21 08:20:19;;;;;;;8.88;3.80;;;;;;;;;;5053679;28;20082;-76
2023/02/21 08:22:46;;;;;;;8.20;3.45;;;;;;;;;;5070707;28;20135;-75
2023/02/21 08:25:14;;;;;;;7.38;3.00;;;;;;;;;;5071026;28;20048;-76
2023/02/21 08:27:41;;;;;;;8.63;3.58;;;;;;;;;;5071351;28;20094;-75
2023/02/21 08:30:09;;;;;;;9.13;3.60;;;;;;;;;;5065532;28;20045;-75
2023/02/21 08:32:37;;;;;;;9.52;4.03;;;;;;;;;;5041107;28;20342;-75
2023/02/21 08:35:05;;;;;;;9.40;3.33;;;;;;;;;;5050653;28;20053;-75
2023/02/21 08:37:35;;;;;;;10.27;3.38;;;;;;;;;;5051945;28;20040;-75
2023/02/21 08:40:03;;;;;;;7.93;4.27;;;;;;;;;;5060245;28;20048;-75
2023/02/21 08:42:29;;;;;;;7.57;4.38;;;;;;;;;;5051971;28;20123;-75
2023/02/21 08:44:57;;;;;;;9.52;3.70;;;;;;;;;;5031059;28;20128;-75
2023/02/21 08:47:23;;;;;;;8.02;3.80;;;;;;;;;;5039752;28;20040;-74
2023/02/21 08:49:51;;;;;;;10.50;4.30;;;;;;;;;;5066793;28;20052;-75
2023/02/21 08:52:20;;;;;;;8.88;3.42;;;;;;;;;;5051358;28;20094;-75
2023/02/21 08:54:47;;;;;;;7.13;3.15;;;;;;;;;;5054747;28;20048;-76
2023/02/21 08:57:14;;;;;;;7.43;3.13;;;;;;;;;;5062697;28;20124;-75
2023/02/21 08:59:43;;;;;;;7.40;3.53;;;;;;;;;;5070084;28;20117;-75
2023/02/21 09:02:15;;;;;;;6.88;3.00;;;;;;;;;;5061518;28;20044;-75
2023/02/21 09:04:42;;;;;;;5.60;3.15;;;;;;;;;;5051878;28;20045;-75
2023/02/21 09:07:12;;;;;;;5.75;2.72;;;;;;;;;;5050776;28;20052;-75
2023/02/21 09:09:39;;;;;;;6.80;3.20;;;;;;;;;;5050451;28;20128;-76
2023/02/21 09:12:07;;;;;;;7.82;2.80;;;;;;;;;;5050021;28;20052;-76
2023/02/21 09:14:34;;;;;;;6.00;2.92;;;;;;;;;;5050440;28;20049;-76
2023/02/21 09:17:01;;;;;;;8.35;3.08;;;;;;;;;;5050186;28;20052;-75
2023/02/21 09:19:28;;;;;;;7.03;3.00;;;;;;;;;;5050129;28;20670;-77
2023/02/21 09:21:57;;;;;;;6.70;2.63;;;;;;;;;;5056197;28;20040;-76
2023/02/21 09:24:26;;;;;;;10.65;4.28;;;;;;;;;;5064502;28;20059;-76
2023/02/21 09:26:54;;;;;;;7.97;2.95;;;;;;;;;;5052224;28;20124;-76
2023/02/21 09:29:21;;;;;;;6.15;2.97;;;;;;;;;;5065330;28;20039;-77
2023/02/21 09:31:48;;;;;;;6.60;2.72;;;;;;;;;;5070989;28;20129;-78
2023/02/21 09:34:15;;;;;;;6.57;2.60;;;;;;;;;;5072767;28;20411;-78
2023/02/21 09:36:42;;;;;;;7.10;2.70;;;;;;;;;;5068396;28;20123;-76
2023/02/21 09:39:09;;;;;;;5.57;2.60;;;;;;;;;;5050967;28;20041;-76
2023/02/21 09:41:38;;;;;;;5.93;2.45;;;;;;;;;;5051454;28;20131;-75
2023/02/21 09:44:06;;;;;;;8.02;3.00;;;;;;;;;;5051121;28;20131;-79
2023/02/21 09:46:37;;;;;;;8.52;2.67;;;;;;;;;;5066006;28;20072;-79
2023/02/21 09:49:06;;;;;;;;;;;;;;;;;;5071972;28;20124;-75
2023/02/21 09:51:35;;;;;;;6.65;2.08;;;;;;;;;;5054268;28;20310;-77
2023/02/21 09:54:03;;;;;;;4.97;2.30;;;;;;;;;;5073459;28;20424;-75
2023/02/21 09:56:35;;;;;;;4.68;2.08;;;;;;;;;;5054656;28;20120;-74
2023/02/21 09:59:03;;;;;;;5.90;2.03;;;;;;;;;;5072661;28;20143;-76
2023/02/21 10:01:45;;;;;;;5.07;2.13;;;;;;;;;;5065591;28;20145;-76
2023/02/21 10:04:21;;;;;;;7.30;2.17;;;;;;;;;;5048380;28;20055;-74
2023/02/21 10:06:54;;;;;;;6.38;2.25;;;;;;;;;;5054447;28;20102;-76
2023/02/21 10:09:37;;;;;;;7.82;2.50;;;;;;;;;;5046358;28;20045;-75
2023/02/21 10:12:12;;;;;;;5.40;2.08;;;;;;;;;;5053619;28;20579;-76
2023/02/21 10:14:59;;;;;;;7.45;2.72;;;;;;;;;;5054603;28;20671;-74
2023/02/21 10:17:31;;;;;;;4.13;1.95;;;;;;;;;;5040987;28;20068;-76
2023/02/21 10:20:04;;;;;;;4.90;1.80;;;;;;;;;;5059944;28;20045;-74
2023/02/21 10:22:34;;;;;;;4.80;1.83;;;;;;;;;;5054089;28;20128;-75
2023/02/21 10:25:02;;;;;;;4.00;1.77;;;;;;;;;;5073547;28;20045;-75
2023/02/21 10:27:33;;;;;;;4.60;1.70;;;;;;;;;;5062157;28;20052;-76
2023/02/21 10:30:07;;;;;;;5.72;1.70;;;;;;;;;;5047595;28;20048;-75
2023/02/21 10:32:34;;;;;;;4.97;1.70;;;;;;;;;;5057794;28;20131;-75
2023/02/21 10:35:01;;;;;;;4.72;1.95;;;;;;;;;;5073088;28;20503;-76
2023/02/21 10:37:39;;;;;;;5.18;1.90;;;;;;;;;;5068678;28;20055;-75
2023/02/21 10:40:17;;;;;;;10.77;3.42;;;;;;;;;;5066179;28;20047;-76
2023/02/21 10:42:50;;;;;;;6.78;2.88;;;;;;;;;;5073580;28;20136;-74
2023/02/21 10:45:18;;;;;;;6.75;2.47;;;;;;;;;;5067607;28;20124;-74
2023/02/21 10:47:56;;;;;;;7.60;2.40;;;;;;;;;;5055672;28;20037;-76
2023/02/21 10:50:40;;;;;;;6.07;2.33;;;;;;;;;;5068931;28;20045;-75
2023/02/21 10:53:27;;;;;;;5.22;3.22;;;;;;;;;;5059568;28;20044;-75
2023/02/21 10:56:22;;;;;;;5.70;2.35;;;;;;;;;;5071944;28;20052;-77
2023/02/21 10:58:51;;;;;;;8.18;3.00;;;;;;;;;;5049980;28;20131;-76
2023/02/21 11:01:21;;;;;;;5.35;2.78;;;;;;;;;;5041241;28;20578;-75
2023/02/21 11:03:51;;;;;;;6.10;2.72;;;;;;;;;;5055237;28;20048;-75
2023/02/21 11:06:33;;;;;;;5.40;2.30;;;;;;;;;;5062449;28;20551;-75
2023/02/21 11:09:01;;;;;;;5.43;2.30;;;;;;;;;;5058944;28;20047;-77
2023/02/21 11:11:36;;;;;;;6.40;2.10;;;;;;;;;;5053526;28;20414;-75
2023/02/21 11:14:22;;;;;;;6.53;2.72;;;;;;;;;;5047097;28;20079;-76
2023/02/21 11:17:15;;;;;;;4.53;2.35;;;;;;;;;;5048762;28;20091;-78
2023/02/21 11:19:50;;;;;;;14.38;2.92;;;;;;;;;;5053404;28;20060;-77
2023/02/21 11:22:20;;;;;;;6.82;2.38;;;;;;;;;;5070942;28;20458;-76
2023/02/21 11:24:51;;;;;;;4.97;2.33;;;;;;;;;;5054615;28;20488;-77
2023/02/21 11:27:18;;;;;;;6.28;2.20;;;;;;;;;;5053843;28;20810;-77
2023/02/21 11:29:49;;;;;;;4.55;2.17;;;;;;;;;;5059192;28;20123;-78
2023/02/21 11:32:25;;;;;;;4.32;1.90;;;;;;;;;;5053495;28;20427;-79
2023/02/21 11:35:01;;;;;;;5.78;2.45;;;;;;;;;;5058340;28;20057;-76
2023/02/21 11:37:30;;;;;;;6.47;2.38;;;;;;;;;;5071088;28;20113;-77
2023/02/21 11:40:00;;;;;;;7.43;1.80;;;;;;;;;;5061363;28;20136;-77
2023/02/21 11:42:30;;;;;;;4.60;1.70;;;;;;;;;;5055843;28;20041;-77
2023/02/21 11:45:17;;;;;;;6.43;2.17;;;;;;;;;;5072987;28;20051;-76
2023/02/21 11:47:52;;;;;;;4.85;2.25;;;;;;;;;;5064043;28;20132;-78
2023/02/21 11:50:25;;;;;;;4.78;2.05;;;;;;;;;;5058116;28;20642;-77
2023/02/21 11:52:59;;;;;;;4.22;2.13;;;;;;;;;;5059120;28;20411;-78
2023/02/21 11:55:26;;;;;;;4.25;1.92;;;;;;;;;;5059396;28;20539;-77
2023/02/21 11:58:03;;;;;;;6.25;2.22;;;;;;;;;;5062486;28;20049;-79
2023/02/21 12:00:41;;;;;;;6.72;2.55;;;;;;;;;;5061639;28;20052;-79
2023/02/21 12:03:34;;;;;;;4.78;1.80;;;;;;;;;;5060599;28;20056;-79
2023/02/21 12:06:06;;;;;;;6.85;2.08;;;;;;;;;;5073012;28;20698;-80
2023/02/21 12:08:46;;;;;;;5.10;1.80;;;;;;;;;;5062847;28;20056;-79
2023/02/21 12:11:40;;;;;;;6.55;2.50;;;;;;;;;;5066980;28;20047;-77
2023/02/21 12:14:30;;;;;;;12.13;2.80;;;;;;;;;;5071949;28;20072;-80
2023/02/21 12:17:03;;;;;;;;;;;;;;;;;;5062101;28;20083;-79
2023/02/21 12:20:05;;;;;;;4.85;1.98;;;;;;;;;;5054712;28;19921;-79
2023/02/21 12:22:44;;;;;;;4.35;1.92;;;;;;;;;;5060530;28;20095;-77
2023/02/21 12:25:17;;;;;;;5.53;1.92;;;;;;;;;;5054821;28;20488;-78
2023/02/21 12:27:52;;;;;;;5.10;1.90;;;;;;;;;;5057307;28;20127;-79
2023/02/21 12:30:40;;;;;;;6.40;1.67;;;;;;;;;;5053064;28;20454;-77
2023/02/21 12:33:21;;;;;;;4.18;1.90;;;;;;;;;;5054553;28;20098;-77
2023/02/21 12:36:11;;;;;;;4.60;2.00;;;;;;;;;;5042749;28;20416;-78
2023/02/21 12:38:52;;;;;;;4.25;1.80;;;;;;;;;;5061630;28;20139;-77
2023/02/21 12:41:37;;;;;;;19.58;2.80;;;;;;;;;;5073764;28;20048;-78
2023/02/21 12:44:13;;;;;;;5.03;2.25;;;;;;;;;;5066376;28;20063;-79
2023/02/21 12:46:43;;;;;;;5.95;2.53;;;;;;;;;;5072660;28;20048;-79
2023/02/21 12:49:16;;;;;;;5.50;2.10;;;;;;;;;;5070260;28;20146;-81
2023/02/21 12:51:47;;;;;;;3.88;1.70;;;;;;;;;;5080870;28;20088;-81
2023/02/21 12:54:16;;;;;;;;;;;;;;;;;;5044616;28;20105;-85
2023/02/21 12:56:56;;;;;;;6.60;2.42;;;;;;;;;;5059694;28;19920;-82
2023/02/21 12:59:28;;;;;;;6.13;2.20;;;;;;;;;;5045780;28;20206;-78
2023/02/21 13:02:01;;;;;;;3.97;1.60;;;;;;;;;;5043378;28;20052;-78
2023/02/21 13:04:35;;;;;;;12.63;4.68;;;;;;;;;;5044174;28;20053;-78
2023/02/21 13:07:09;;;;;;;5.80;2.00;;;;;;;;;;5063086;28;20068;-77
2023/02/21 13:09:39;;;;;;;4.93;2.28;;;;;;;;;;5076870;28;20075;-77
2023/02/21 13:12:09;;;;;;;4.70;2.10;;;;;;;;;;5085228;28;20055;-77
2023/02/21 13:14:43;;;;;;;5.78;2.50;;;;;;;;;;5083957;28;20076;-77
2023/02/21 13:17:12;;;;;;;5.32;1.95;;;;;;;;;;5084001;28;20071;-78
2023/02/21 13:19:44;;;;;;;4.80;2.42;;;;;;;;;;5086553;28;20051;-79
2023/02/21 13:26:00;;;;;;;6.32;2.28;;;;;;;;;;5068384;28;20043;-77
2023/02/21 13:28:35;;;;;;;4.97;2.28;;;;;;;;;;5073857;28;20052;-77
2023/02/21 13:31:04;;;;;;;6.32;2.50;;;;;;;;;;5074384;28;20052;-79
2023/02/21 13:33:38;;;;;;;5.68;2.03;;;;;;;;;;5085810;28;20075;-80
2023/02/21 13:36:20;;;;;;;3.95;2.00;;;;;;;;;;5082464;28;20052;-82
2023/02/21 13:38:59;;;;;;;4.32;1.80;;;;;;;;;;5057904;28;20040;-79
2023/02/21 13:41:30;;;;;;;6.07;2.22;;;;;;;;;;5068459;28;20052;-82
2023/02/21 13:43:58;;;;;;;3.90;1.65;;;;;;;;;;5059361;28;20661;-80
2023/02/21 13:46:41;;;;;;;5.65;2.10;;;;;;;;;;5061297;28;20055;-78
2023/02/21 13:49:41;;;;;;;4.95;1.90;;;;;;;;;;5072736;28;20499;-77
2023/02/21 13:52:59;;;;;;;4.25;1.70;;;;;;;;;;5060373;28;20541;-76
2023/02/21 13:55:28;;;;;;;6.00;1.80;;;;;;;;;;5048017;28;20098;-77
2023/02/21 13:58:30;;;;;;;3.55;1.40;;;;;;;;;;5063010;28;20056;-75
2023/02/21 14:01:13;;;;;;;3.78;1.70;;;;;;;;;;5041195;28;20045;-77
2023/02/21 14:03:40;;;;;;;4.18;1.85;;;;;;;;;;5060833;28;20151;-74
2023/02/21 14:06:26;;;;;;;4.63;1.77;;;;;;;;;;5054476;28;20402;-74
2023/02/21 14:09:00;;;;;;;6.10;1.85;;;;;;;;;;5066420;28;20056;-74
2023/02/21 14:11:30;;;;;;;4.32;1.90;;;;;;;;;;5069356;28;20064;-75
2023/02/21 14:14:02;;;;;;;4.93;1.55;;;;;;;;;;5070090;28;20047;-75
2023/02/21 14:16:33;;;;;;;4.63;1.55;;;;;;;;;;5069983;28;20048;-75
2023/02/21 14:19:01;;;;;;;3.50;1.50;;;;;;;;;;5069754;28;20048;-74
2023/02/21 14:21:34;;;;;;;3.90;1.60;;;;;;;;;;5068842;28;20045;-73
2023/02/21 14:24:03;;;;;;;4.97;1.30;;;;;;;;;;5070038;28;20045;-74
2023/02/21 14:26:42;;;;;;;5.65;1.52;;;;;;;;;;5062099;28;20128;-76
2023/02/21 14:29:35;;;;;;;4.82;1.23;;;;;;;;;;5050037;28;20053;-74
2023/02/21 14:32:26;;;;;;;3.70;1.30;;;;;;;;;;5035767;28;20072;-76
2023/02/21 14:34:56;;;;;;;3.70;1.33;;;;;;;;;;5057125;28;20052;-75
2023/02/21 14:37:30;;;;;;;3.35;1.23;;;;;;;;;;5075674;28;20059;-76
2023/02/21 14:40:00;;;;;;;3.22;1.20;;;;;;;;;;5082933;28;20053;-76
2023/02/21 14:42:44;;;;;;;2.90;1.10;;;;;;;;;;5069657;28;20080;-76
2023/02/21 14:45:25;;;;;;;3.63;0.95;;;;;;;;;;5056906;28;20565;-75
2023/02/21 14:48:05;;;;;;;4.25;1.30;;;;;;;;;;5070518;28;20052;-75
2023/02/21 14:50:38;;;;;;;3.92;1.15;;;;;;;;;;5073887;28;20079;-75
2023/02/21 14:53:52;;;;;;;3.88;0.88;;;;;;;;;;5060482;28;20120;-75
2023/02/21 14:56:50;;;;;;;4.22;1.20;;;;;;;;;;5064391;28;20095;-75
2023/02/21 14:59:44;;;;;;;4.40;1.65;;;;;;;;;;5075196;28;20050;-74
2023/02/21 15:02:23;;;;;;;2.85;1.23;;;;;;;;;;5072862;28;20675;-75
2023/02/21 15:05:02;;;;;;;3.00;1.23;;;;;;;;;;5073395;28;20131;-74
2023/02/21 15:07:34;;;;;;;4.35;1.50;;;;;;;;;;5034024;28;20124;-74
2023/02/21 15:10:16;;;;;;;4.38;1.48;;;;;;;;;;5057636;28;20064;-73
2023/02/21 15:12:47;;;;;;;3.97;1.50;;;;;;;;;;5053799;28;20068;-75
2023/02/21 15:15:21;;;;;;;3.97;1.30;;;;;;;;;;5069504;28;20048;-75
2023/02/21 15:17:59;;;;;;;2.17;1.20;;;;;;;;;;5073333;28;20076;-74
2023/02/21 15:20:25;;;;;;;2.67;1.17;;;;;;;;;;5055960;28;20060;-76
2023/02/21 15:22:57;;;;;;;3.33;1.27;;;;;;;;;;5069284;28;20064;-75
2023/02/21 15:25:24;;;;;;;3.92;1.30;;;;;;;;;;5071102;28;20050;-78
2023/02/21 15:27:57;;;;;;;3.67;1.45;;;;;;;;;;5075422;28;20053;-76
2023/02/21 15:30:26;;;;;;;4.30;1.73;;;;;;;;;;5073441;28;20131;-78
2023/02/21 15:32:58;;;;;;;3.38;1.13;;;;;;;;;;5076489;28;20046;-78
2023/02/21 15:35:30;;;;;;;3.22;1.08;;;;;;;;;;5035505;28;20053;-74
2023/02/21 15:37:58;;;;;;;3.20;1.40;;;;;;;;;;5045293;28;20053;-73
2023/02/21 15:40:27;;;;;;;7.45;2.40;;;;;;;;;;5072327;28;20049;-74
2023/02/21 15:42:56;;;;;;;3.10;1.40;;;;;;;;;;5072530;28;20144;-75
2023/02/21 15:45:27;;;;;;;3.13;1.20;;;;;;;;;;5070611;28;20080;-75
2023/02/21 15:47:55;;;;;;;4.18;1.23;;;;;;;;;;5067166;28;20278;-75
2023/02/21 15:50:31;;;;;;;3.35;1.10;;;;;;;;;;5052990;28;20127;-78
2023/02/21 15:53:15;;;;;;;4.85;1.20;;;;;;;;;;5058272;28;20102;-74
2023/02/21 15:55:46;;;;;;;5.22;1.17;;;;;;;;;;5055284;28;20091;-78
2023/02/21 15:58:20;;;;;;;3.80;1.20;;;;;;;;;;5059553;28;20049;-74
2023/02/21 16:00:49;;;;;;;3.35;1.30;;;;;;;;;;5052355;28;20053;-75
2023/02/21 16:03:34;;;;;;;4.43;1.55;;;;;;;;;;5066135;28;20051;-73
2023/02/21 16:06:19;;;;;;;3.60;1.10;;;;;;;;;;5040846;28;20052;-74
2023/02/21 16:09:02;;;;;;;3.13;1.30;;;;;;;;;;5058225;28;20044;-74
2023/02/21 16:11:42;;;;;;;4.70;1.50;;;;;;;;;;5071549;28;20047;-74
2023/02/21 16:14:18;;;;;;;3.13;1.30;;;;;;;;;;5071415;28;20076;-73
2023/02/21 16:16:45;;;;;;;3.40;1.63;;;;;;;;;;5052195;28;20445;-73
2023/02/21 16:19:12;;;;;;;5.03;1.55;;;;;;;;;;5071528;28;20080;-76
2023/02/21 16:21:40;;;;;;;6.15;1.60;;;;;;;;;;5071090;28;20677;-78
2023/02/21 16:24:28;;;;;;;5.53;1.45;;;;;;;;;;5066156;28;20102;-74
2023/02/21 16:27:04;;;;;;;4.47;1.50;;;;;;;;;;5071267;28;20055;-76
2023/02/21 16:29:31;;;;;;;4.10;1.50;;;;;;;;;;5057320;28;20054;-76
2023/02/21 16:31:58;;;;;;;4.60;1.48;;;;;;;;;;5068911;28;20080;-77
2023/02/21 16:34:25;;;;;;;3.63;1.45;;;;;;;;;;5051388;28;20051;-76
2023/02/21 16:37:02;;;;;;;7.60;1.88;;;;;;;;;;5050683;28;20131;-76
2023/02/21 16:39:29;;;;;;;6.45;1.88;;;;;;;;;;5031941;28;20085;-77
2023/02/21 16:41:56;;;;;;;8.80;2.00;;;;;;;;;;5031375;28;20173;-76
2023/02/21 16:44:23;;;;;;;6.60;2.20;;;;;;;;;;5071433;28;20044;-77
2023/02/21 16:46:50;;;;;;;11.63;3.40;;;;;;;;;;5077756;28;20516;-79
2023/02/21 16:49:17;;;;;;;8.73;2.30;;;;;;;;;;5060874;28;20049;-79
2023/02/21 16:51:44;;;;;;;6.22;2.17;;;;;;;;;;5075908;28;20072;-77
2023/02/21 16:54:12;;;;;;;5.72;2.20;;;;;;;;;;5065510;28;20253;-77
2023/02/21 16:56:39;;;;;;;5.88;2.22;;;;;;;;;;5066503;28;20099;-73
2023/02/21 16:59:09;;;;;;;7.80;2.42;;;;;;;;;;5055460;28;20076;-75
2023/02/21 17:01:37;;;;;;;7.38;2.05;;;;;;;;;;5058663;28;20045;-79
2023/02/21 17:04:06;;;;;;;8.80;3.13;;;;;;;;;;5063769;28;20041;-77
2023/02/21 17:06:34;;;;;;;12.55;3.63;;;;;;;;;;5056799;28;20076;-77
2023/02/21 17:09:01;;;;;;;6.68;2.50;;;;;;;;;;5057914;28;20132;-80
2023/02/21 17:11:29;;;;;;;6.60;2.80;;;;;;;;;;5075298;28;20237;-79
2023/02/21 17:13:55;;;;;;;5.13;2.38;;;;;;;;;;5079788;28;20045;-78
2023/02/21 17:16:24;;;;;;;6.03;2.40;;;;;;;;;;5063455;28;20059;-79
2023/02/21 17:18:50;;;;;;;5.13;2.50;;;;;;;;;;5058296;28;20321;-79
2023/02/21 17:21:17;;;;;;;7.50;2.67;;;;;;;;;;5057942;28;20064;-79
2023/02/21 17:23:44;;;;;;;7.82;2.97;;;;;;;;;;5070065;28;20091;-79
2023/02/21 17:26:11;;;;;;;7.28;3.05;;;;;;;;;;5068768;28;20113;-79